sensor_id;sensor_type;location;lat;lon;timestamp;P1;durP1;ratioP1;P2;durP2;ratioP2
64037;SDS011;54641;50.168;8.492;2024-01-30T17:32:52;17.00;;;11.50;;
64037;SDS011;54641;50.168;8.492;2024-01-30T17:35:24;19.20;;;10.80;;
64037;SDS011;54641;50.168;8.492;2024-01-30T17:37:54;18.70;;;11.80;;
64037;SDS011;54641;50.168;8.492;2024-01-30T17:40:25;18.90;;;10.70;;
64037;SDS011;54641;50.168;8.492;2024-01-30T17:42:56;20.00;;;11.30;;
64037;SDS011;54641;50.168;8.492;2024-01-30T17:45:26;18.60;;;11.60;;
64037;SDS011;54641;50.168;8.492;2024-01-30T17:47:57;18.80;;;10.00;;
64037;SDS011;54641;50.168;8.492;2024-01-30T17:50:27;18.30;;;11.20;;
64037;SDS011;54641;50.168;8.492;2024-01-30T17:52:58;19.40;;;11.80;;
64037;SDS011;54641;50.168;8.492;2024-01-30T17:55:28;19.70;;;12.50;;
64037;SDS011;54641;50.168;8.492;2024-01-30T17:57:59;17.10;;;11.20;;
64037;SDS011;54641;50.168;8.492;2024-01-30T18:00:31;18.00;;;11.50;;
64037;SDS011;54641;50.168;8.492;2024-01-30T18:03:01;20.50;;;11.40;;
64037;SDS011;54641;50.168;8.492;2024-01-30T18:05:33;19.30;;;10.60;;
64037;SDS011;54641;50.168;8.492;2024-01-30T18:08:04;16.00;;;11.30;;
64037;SDS011;54641;50.168;8.492;2024-01-30T18:10:36;18.40;;;12.30;;
64037;SDS011;54641;50.168;8.492;2024-01-30T18:13:07;21.00;;;11.80;;
64037;SDS011;54641;50.168;8.492;2024-01-30T18:15:41;17.50;;;12.10;;
64037;SDS011;54641;50.168;8.492;2024-01-30T18:18:12;18.00;;;11.20;;
64037;SDS011;54641;50.168;8.492;2024-01-30T18:20:43;21.10;;;11.00;;
64037;SDS011;54641;50.168;8.492;2024-01-30T18:23:15;19.30;;;11.40;;
64037;SDS011;54641;50.168;8.492;2024-01-30T18:25:45;19.90;;;10.60;;
64037;SDS011;54641;50.168;8.492;2024-01-30T18:28:27;18.90;;;11.90;;
64037;SDS011;54641;50.168;8.492;2024-01-30T18:30:58;17.10;;;11.40;;
64037;SDS011;54641;50.168;8.492;2024-01-30T18:33:29;20.50;;;11.70;;
64037;SDS011;54641;50.168;8.492;2024-01-30T18:36:00;17.30;;;10.90;;
64037;SDS011;54641;50.168;8.492;2024-01-30T18:38:31;19.90;;;10.60;;
64037;SDS011;54641;50.168;8.492;2024-01-30T18:41:01;18.40;;;10.80;;
64037;SDS011;54641;50.168;8.492;2024-01-30T18:43:33;16.40;;;10.40;;
64037;SDS011;54641;50.168;8.492;2024-01-30T18:46:04;14.70;;;9.50;;
64037;SDS011;54641;50.168;8.492;2024-01-30T18:48:36;18.60;;;11.40;;
64037;SDS011;54641;50.168;8.492;2024-01-30T18:51:07;18.60;;;11.10;;
64037;SDS011;54641;50.168;8.492;2024-01-30T18:53:43;16.20;;;10.30;;
64037;SDS011;54641;50.168;8.492;2024-01-30T18:56:15;17.90;;;9.80;;
64037;SDS011;54641;50.168;8.492;2024-01-30T18:58:47;16.50;;;9.50;;
64037;SDS011;54641;50.168;8.492;2024-01-30T19:01:17;14.40;;;9.10;;
64037;SDS011;54641;50.168;8.492;2024-01-30T19:03:48;22.40;;;11.40;;
64037;SDS011;54641;50.168;8.492;2024-01-30T19:06:19;18.10;;;10.70;;
64037;SDS011;54641;50.168;8.492;2024-01-30T19:08:50;19.10;;;10.70;;
64037;SDS011;54641;50.168;8.492;2024-01-30T19:11:21;18.80;;;10.60;;
64037;SDS011;54641;50.168;8.492;2024-01-30T19:13:52;14.60;;;10.10;;
64037;SDS011;54641;50.168;8.492;2024-01-30T19:16:23;15.70;;;9.70;;
64037;SDS011;54641;50.168;8.492;2024-01-30T19:18:54;17.00;;;9.90;;
64037;SDS011;54641;50.168;8.492;2024-01-30T19:21:25;15.80;;;9.40;;
64037;SDS011;54641;50.168;8.492;2024-01-30T19:23:56;17.90;;;11.30;;
64037;SDS011;54641;50.168;8.492;2024-01-30T19:26:29;19.40;;;11.10;;
64037;SDS011;54641;50.168;8.492;2024-01-30T19:29:00;17.80;;;10.50;;
64037;SDS011;54641;50.168;8.492;2024-01-30T19:31:31;19.80;;;11.80;;
64037;SDS011;54641;50.168;8.492;2024-01-30T19:34:02;19.90;;;11.50;;
64037;SDS011;54641;50.168;8.492;2024-01-30T19:36:34;22.30;;;11.50;;
64037;SDS011;54641;50.168;8.492;2024-01-30T19:39:12;20.10;;;11.70;;
64037;SDS011;54641;50.168;8.492;2024-01-30T19:41:51;17.40;;;11.20;;
64037;SDS011;54641;50.168;8.492;2024-01-30T19:44:21;18.40;;;11.40;;
64037;SDS011;54641;50.168;8.492;2024-01-30T19:46:52;22.10;;;12.30;;
64037;SDS011;54641;50.168;8.492;2024-01-30T19:49:23;19.10;;;11.00;;
64037;SDS011;54641;50.168;8.492;2024-01-30T19:51:55;20.70;;;10.90;;
64037;SDS011;54641;50.168;8.492;2024-01-30T19:54:31;18.80;;;11.40;;
64037;SDS011;54641;50.168;8.492;2024-01-30T19:57:02;18.80;;;10.60;;
64037;SDS011;54641;50.168;8.492;2024-01-30T19:59:34;21.50;;;11.00;;
64037;SDS011;54641;50.168;8.492;2024-01-30T20:02:05;24.10;;;12.20;;
64037;SDS011;54641;50.168;8.492;2024-01-30T20:04:36;19.30;;;10.60;;
64037;SDS011;54641;50.168;8.492;2024-01-30T20:07:06;18.90;;;12.00;;
64037;SDS011;54641;50.168;8.492;2024-01-30T20:09:37;19.50;;;11.90;;
64037;SDS011;54641;50.168;8.492;2024-01-30T20:12:09;20.00;;;11.70;;
64037;SDS011;54641;50.168;8.492;2024-01-30T20:14:40;19.00;;;12.40;;
64037;SDS011;54641;50.168;8.492;2024-01-30T20:17:11;23.80;;;12.30;;
64037;SDS011;54641;50.168;8.492;2024-01-30T20:19:44;19.10;;;12.10;;
64037;SDS011;54641;50.168;8.492;2024-01-30T20:22:18;21.80;;;12.40;;
64037;SDS011;54641;50.168;8.492;2024-01-30T20:24:58;22.00;;;13.20;;
64037;SDS011;54641;50.168;8.492;2024-01-30T20:27:43;22.10;;;13.20;;
64037;SDS011;54641;50.168;8.492;2024-01-30T20:30:13;23.70;;;13.40;;
64037;SDS011;54641;50.168;8.492;2024-01-30T20:32:45;23.60;;;14.00;;
64037;SDS011;54641;50.168;8.492;2024-01-30T20:35:17;29.20;;;14.30;;
64037;SDS011;54641;50.168;8.492;2024-01-30T20:37:47;23.30;;;13.70;;
64037;SDS011;54641;50.168;8.492;2024-01-30T20:40:20;23.40;;;13.40;;
64037;SDS011;54641;50.168;8.492;2024-01-30T20:42:50;22.70;;;12.50;;
64037;SDS011;54641;50.168;8.492;2024-01-30T20:45:21;22.90;;;14.10;;
64037;SDS011;54641;50.168;8.492;2024-01-30T20:47:51;19.80;;;13.00;;
64037;SDS011;54641;50.168;8.492;2024-01-30T20:50:23;22.60;;;13.70;;
64037;SDS011;54641;50.168;8.492;2024-01-30T20:52:53;21.70;;;13.30;;
64037;SDS011;54641;50.168;8.492;2024-01-30T20:55:24;20.50;;;13.50;;
64037;SDS011;54641;50.168;8.492;2024-01-30T20:57:54;22.40;;;13.80;;
64037;SDS011;54641;50.168;8.492;2024-01-30T21:00:25;24.10;;;14.00;;
64037;SDS011;54641;50.168;8.492;2024-01-30T21:02:56;24.30;;;13.50;;
64037;SDS011;54641;50.168;8.492;2024-01-30T21:05:27;22.30;;;13.80;;
64037;SDS011;54641;50.168;8.492;2024-01-30T21:07:58;21.40;;;13.40;;
64037;SDS011;54641;50.168;8.492;2024-01-30T21:10:28;27.00;;;16.10;;
64037;SDS011;54641;50.168;8.492;2024-01-30T21:13:00;22.90;;;13.30;;
64037;SDS011;54641;50.168;8.492;2024-01-30T21:15:31;24.30;;;14.40;;
64037;SDS011;54641;50.168;8.492;2024-01-30T21:18:01;20.20;;;13.50;;
64037;SDS011;54641;50.168;8.492;2024-01-30T21:20:33;26.10;;;14.20;;
64037;SDS011;54641;50.168;8.492;2024-01-30T21:23:05;24.60;;;14.50;;
64037;SDS011;54641;50.168;8.492;2024-01-30T21:25:36;26.70;;;14.90;;
64037;SDS011;54641;50.168;8.492;2024-01-30T21:28:07;22.20;;;13.30;;
64037;SDS011;54641;50.168;8.492;2024-01-30T21:30:39;22.20;;;13.20;;
64037;SDS011;54641;50.168;8.492;2024-01-30T21:33:10;19.30;;;13.40;;
64037;SDS011;54641;50.168;8.492;2024-01-30T21:35:41;24.30;;;14.60;;
64037;SDS011;54641;50.168;8.492;2024-01-30T21:38:12;26.20;;;14.00;;
64037;SDS011;54641;50.168;8.492;2024-01-30T21:40:43;20.90;;;13.50;;
64037;SDS011;54641;50.168;8.492;2024-01-30T21:43:14;21.80;;;13.00;;
64037;SDS011;54641;50.168;8.492;2024-01-30T21:45:44;25.80;;;13.90;;
64037;SDS011;54641;50.168;8.492;2024-01-30T21:48:15;20.00;;;14.00;;
64037;SDS011;54641;50.168;8.492;2024-01-30T21:50:45;22.30;;;13.50;;
64037;SDS011;54641;50.168;8.492;2024-01-30T21:53:16;19.20;;;12.10;;
64037;SDS011;54641;50.168;8.492;2024-01-30T21:55:47;23.40;;;14.10;;
64037;SDS011;54641;50.168;8.492;2024-01-30T21:58:20;20.20;;;12.20;;
64037;SDS011;54641;50.168;8.492;2024-01-30T22:00:53;23.10;;;13.50;;
64037;SDS011;54641;50.168;8.492;2024-01-30T22:05:55;21.10;;;12.60;;
64037;SDS011;54641;50.168;8.492;2024-01-30T22:08:25;21.30;;;13.00;;
64037;SDS011;54641;50.168;8.492;2024-01-30T22:10:56;22.00;;;13.90;;
64037;SDS011;54641;50.168;8.492;2024-01-30T22:13:27;21.80;;;13.10;;
64037;SDS011;54641;50.168;8.492;2024-01-30T22:15:57;20.90;;;13.20;;
64037;SDS011;54641;50.168;8.492;2024-01-30T22:18:28;27.10;;;12.90;;
64037;SDS011;54641;50.168;8.492;2024-01-30T22:20:58;21.80;;;13.30;;
64037;SDS011;54641;50.168;8.492;2024-01-30T22:23:34;17.70;;;12.30;;
64037;SDS011;54641;50.168;8.492;2024-01-30T22:26:04;20.30;;;11.70;;
64037;SDS011;54641;50.168;8.492;2024-01-30T22:28:34;20.40;;;13.40;;
64037;SDS011;54641;50.168;8.492;2024-01-30T22:31:05;20.00;;;11.70;;
64037;SDS011;54641;50.168;8.492;2024-01-30T22:33:36;16.80;;;11.00;;
64037;SDS011;54641;50.168;8.492;2024-01-30T22:36:07;15.80;;;10.20;;
64037;SDS011;54641;50.168;8.492;2024-01-30T22:38:38;17.70;;;10.40;;
64037;SDS011;54641;50.168;8.492;2024-01-30T22:41:10;12.10;;;8.80;;
64037;SDS011;54641;50.168;8.492;2024-01-30T22:43:41;13.60;;;8.70;;
64037;SDS011;54641;50.168;8.492;2024-01-30T22:46:11;14.20;;;8.90;;
64037;SDS011;54641;50.168;8.492;2024-01-30T22:48:45;12.30;;;7.40;;
64037;SDS011;54641;50.168;8.492;2024-01-30T22:51:16;12.50;;;8.60;;
64037;SDS011;54641;50.168;8.492;2024-01-30T22:53:46;15.40;;;9.00;;
64037;SDS011;54641;50.168;8.492;2024-01-30T22:56:17;14.10;;;9.00;;
64037;SDS011;54641;50.168;8.492;2024-01-30T22:58:47;12.90;;;9.20;;
64037;SDS011;54641;50.168;8.492;2024-01-30T23:01:17;13.30;;;8.70;;
64037;SDS011;54641;50.168;8.492;2024-01-30T23:03:48;14.60;;;9.40;;
64037;SDS011;54641;50.168;8.492;2024-01-30T23:06:19;12.10;;;8.30;;
64037;SDS011;54641;50.168;8.492;2024-01-30T23:08:49;14.70;;;9.40;;
64037;SDS011;54641;50.168;8.492;2024-01-30T23:11:19;13.40;;;9.20;;
64037;SDS011;54641;50.168;8.492;2024-01-30T23:13:50;17.80;;;11.40;;
64037;SDS011;54641;50.168;8.492;2024-01-30T23:16:20;19.20;;;12.40;;
64037;SDS011;54641;50.168;8.492;2024-01-30T23:18:50;21.70;;;11.80;;
64037;SDS011;54641;50.168;8.492;2024-01-30T23:21:22;25.40;;;14.20;;
64037;SDS011;54641;50.168;8.492;2024-01-30T23:23:52;21.90;;;13.80;;
64037;SDS011;54641;50.168;8.492;2024-01-30T23:26:23;20.30;;;12.10;;
64037;SDS011;54641;50.168;8.492;2024-01-30T23:28:53;17.10;;;12.00;;
64037;SDS011;54641;50.168;8.492;2024-01-30T23:31:25;19.00;;;11.50;;
64037;SDS011;54641;50.168;8.492;2024-01-30T23:33:55;19.00;;;10.90;;
64037;SDS011;54641;50.168;8.492;2024-01-30T23:36:26;18.30;;;10.90;;
64037;SDS011;54641;50.168;8.492;2024-01-30T23:38:57;18.70;;;10.70;;
64037;SDS011;54641;50.168;8.492;2024-01-30T23:41:27;23.70;;;11.60;;
64037;SDS011;54641;50.168;8.492;2024-01-30T23:43:58;19.30;;;10.80;;
64037;SDS011;54641;50.168;8.492;2024-01-30T23:46:28;15.60;;;10.30;;
64037;SDS011;54641;50.168;8.492;2024-01-30T23:48:58;15.60;;;9.60;;
64037;SDS011;54641;50.168;8.492;2024-01-30T23:51:29;18.00;;;11.00;;
64037;SDS011;54641;50.168;8.492;2024-01-30T23:53:59;16.50;;;9.20;;
64037;SDS011;54641;50.168;8.492;2024-01-30T23:56:30;22.30;;;10.40;;
64037;SDS011;54641;50.168;8.492;2024-01-30T23:59:00;15.50;;;7.90;;
